createdAt,value
2018-04-16T00:00:39.173Z,11.93
2018-04-16T00:01:45.002Z,11.93
2018-04-16T00:02:51.785Z,11.92
2018-04-16T00:03:57.566Z,11.92
2018-04-16T00:05:04.393Z,11.92
2018-04-16T00:06:10.141Z,11.93
2018-04-16T00:07:16.427Z,11.93
2018-04-16T00:08:22.717Z,11.93
2018-04-16T00:09:29.034Z,11.92
2018-04-16T00:10:35.778Z,11.92
2018-04-16T00:11:41.580Z,11.92
2018-04-16T00:12:48.372Z,11.92
2018-04-16T00:13:54.635Z,11.90
2018-04-16T00:15:00.954Z,11.90
2018-04-16T00:16:06.716Z,11.91
2018-04-16T00:17:13.011Z,11.90
2018-04-16T00:18:19.779Z,11.88
2018-04-16T00:19:26.082Z,11.86
2018-04-16T00:20:32.386Z,11.84
2018-04-16T00:21:38.155Z,11.84
2018-04-16T00:22:44.933Z,11.83
2018-04-16T00:23:51.220Z,11.82
2018-04-16T00:24:57.506Z,11.83
2018-04-16T00:26:03.815Z,11.84
2018-04-16T00:27:09.572Z,11.85
2018-04-16T00:28:16.359Z,11.85
2018-04-16T00:29:22.149Z,11.84
2018-04-16T00:30:28.945Z,11.85
2018-04-16T00:31:35.221Z,11.87
2018-04-16T00:32:41.002Z,11.86
2018-04-16T00:33:47.796Z,11.87
2018-04-16T00:34:54.073Z,11.86
2018-04-16T00:36:00.070Z,11.86
2018-04-16T00:37:06.640Z,11.85
2018-04-16T00:38:12.428Z,11.83
2018-04-16T00:39:18.708Z,11.84
2018-04-16T00:40:25.531Z,11.83
2018-04-16T00:41:31.786Z,11.84
2018-04-16T00:42:37.555Z,11.82
2018-04-16T00:43:44.336Z,11.80
2018-04-16T00:44:50.632Z,11.78
2018-04-16T00:45:56.931Z,11.78
2018-04-16T00:47:02.709Z,11.76
2018-04-16T00:48:08.985Z,11.77
2018-04-16T00:49:15.764Z,11.77
2018-04-16T00:50:22.048Z,11.78
2018-04-16T00:51:28.371Z,11.80
2018-04-16T00:52:34.143Z,11.82
2018-04-16T00:53:40.913Z,11.81
2018-04-16T00:54:47.193Z,11.79
2018-04-16T00:55:52.997Z,11.78
2018-04-16T00:56:59.745Z,11.77
2018-04-16T00:58:06.038Z,11.75
2018-04-16T00:59:13.384Z,11.75
2018-04-16T01:00:18.604Z,11.76
2018-04-16T01:01:24.912Z,11.77
2018-04-16T01:02:31.181Z,11.78
2018-04-16T01:03:37.469Z,11.79
2018-04-16T01:04:43.245Z,11.80
2018-04-16T01:05:50.041Z,11.80
2018-04-16T01:06:55.848Z,11.84
2018-04-16T01:08:02.593Z,11.83
2018-04-16T01:09:08.878Z,11.84
2018-04-16T01:10:16.161Z,11.82
2018-04-16T01:11:20.975Z,11.81
2018-04-16T01:12:27.736Z,11.83
2018-04-16T01:13:33.518Z,11.87
2018-04-16T01:14:39.805Z,11.89
2018-04-16T01:15:46.089Z,11.90
2018-04-16T01:16:52.409Z,11.90
2018-04-16T01:17:59.175Z,11.87
2018-04-16T01:19:05.436Z,11.87
2018-04-16T01:20:11.720Z,11.85
2018-04-16T01:21:18.037Z,11.83
2018-04-16T01:22:23.800Z,11.81
2018-04-16T01:23:30.578Z,11.79
2018-04-16T01:24:36.389Z,11.78
2018-04-16T01:25:43.157Z,11.78
2018-04-16T01:26:48.965Z,11.77
2018-04-16T01:27:55.223Z,11.77
2018-04-16T01:29:02.015Z,11.76
2018-04-16T01:30:08.283Z,11.77
2018-04-16T01:31:14.570Z,11.75
2018-04-16T01:32:21.860Z,11.76
2018-04-16T01:33:26.645Z,11.78
2018-04-16T01:34:33.423Z,11.76
2018-04-16T01:35:39.705Z,11.75
2018-04-16T01:36:45.487Z,11.73
2018-04-16T01:37:51.800Z,11.73
2018-04-16T01:38:58.239Z,11.74
2018-04-16T01:40:04.830Z,11.75
2018-04-16T01:41:10.636Z,11.76
2018-04-16T01:42:17.414Z,11.75
2018-04-16T01:43:23.179Z,11.71
2018-04-16T01:44:29.948Z,11.68
2018-04-16T01:45:36.228Z,11.66
2018-04-16T01:46:42.498Z,11.63
2018-04-16T01:47:48.325Z,11.60
2018-04-16T01:48:54.576Z,11.59
2018-04-16T01:50:00.846Z,11.59
2018-04-16T01:51:07.633Z,11.61
2018-04-16T01:52:13.952Z,11.62
2018-04-16T01:53:19.695Z,11.62
2018-04-16T01:54:26.470Z,11.62
2018-04-16T01:55:32.248Z,11.63
2018-04-16T01:56:38.526Z,11.65
2018-04-16T01:57:44.827Z,11.64
2018-04-16T01:58:51.093Z,11.63
2018-04-16T01:59:57.361Z,11.63
2018-04-16T02:01:03.647Z,11.63
2018-04-16T02:02:10.431Z,11.60
2018-04-16T02:03:16.733Z,11.56
2018-04-16T02:04:22.977Z,11.51
2018-04-16T02:05:28.764Z,11.44
2018-04-16T02:06:35.539Z,11.37
2018-04-16T02:07:41.849Z,11.32
2018-04-16T02:08:47.592Z,11.28
2018-04-16T02:09:54.358Z,11.26
2018-04-16T02:11:00.639Z,11.28
2018-04-16T02:12:06.419Z,11.22
2018-04-16T02:13:13.219Z,11.09
2018-04-16T02:14:19.449Z,11.03
2018-04-16T02:15:25.725Z,10.96
2018-04-16T02:16:31.506Z,10.94
2018-04-16T02:17:38.275Z,10.95
2018-04-16T02:18:44.581Z,10.95
2018-04-16T02:19:50.811Z,10.89
2018-04-16T02:20:57.072Z,10.83
2018-04-16T02:22:03.388Z,10.80
2018-04-16T02:23:09.122Z,10.83
2018-04-16T02:24:15.909Z,10.88
2018-04-16T02:25:21.658Z,10.93
2018-04-16T02:26:28.428Z,10.93
2018-04-16T02:27:34.195Z,10.88
2018-04-16T02:28:40.467Z,10.80
2018-04-16T02:29:46.721Z,10.70
2018-04-16T02:30:53.470Z,10.62
2018-04-16T02:31:59.736Z,10.57
2018-04-16T02:33:06.012Z,10.57
2018-04-16T02:34:12.293Z,10.61
2018-04-16T02:35:18.539Z,10.65
2018-04-16T02:36:24.296Z,10.64
2018-04-16T02:37:30.552Z,10.63
2018-04-16T02:38:36.807Z,10.59
2018-04-16T02:39:43.095Z,10.55
2018-04-16T02:40:49.806Z,10.50
2018-04-16T02:41:55.578Z,10.49
2018-04-16T02:43:01.834Z,10.48
2018-04-16T02:44:08.109Z,10.43
2018-04-16T02:45:14.340Z,10.42
2018-04-16T02:46:21.081Z,10.37
2018-04-16T02:47:26.847Z,10.38
2018-04-16T02:48:33.104Z,10.42
2018-04-16T02:49:39.868Z,10.37
2018-04-16T02:50:46.403Z,10.21
2018-04-16T02:51:52.341Z,10.16
2018-04-16T02:52:58.107Z,10.21
2018-04-16T02:54:04.867Z,10.27
2018-04-16T02:55:12.091Z,10.26
2018-04-16T02:56:16.853Z,10.25
2018-04-16T02:57:24.592Z,10.35
2018-04-16T02:58:29.855Z,10.36
2018-04-16T02:59:36.127Z,10.21
2018-04-16T03:00:42.341Z,10.06
2018-04-16T03:01:48.586Z,9.95
2018-04-16T03:02:54.338Z,9.86
2018-04-16T03:04:01.086Z,9.82
2018-04-16T03:05:07.407Z,9.77
2018-04-16T03:06:13.565Z,9.76
2018-04-16T03:07:19.816Z,9.80
2018-04-16T03:08:25.589Z,9.89
2018-04-16T03:09:32.324Z,9.99
2018-04-16T03:10:38.547Z,9.99
2018-04-16T03:11:44.792Z,10.07
2018-04-16T03:12:51.019Z,10.09
2018-04-16T03:13:57.260Z,10.05
2018-04-16T03:15:03.524Z,10.00
2018-04-16T03:16:09.740Z,9.87
2018-04-16T03:17:15.995Z,9.75
2018-04-16T03:18:22.235Z,9.71
2018-04-16T03:19:27.973Z,9.71
2018-04-16T03:20:34.751Z,9.79
2018-04-16T03:21:40.940Z,9.78
2018-04-16T03:22:47.177Z,9.70
2018-04-16T03:23:52.935Z,9.55
2018-04-16T03:24:59.701Z,9.46
2018-04-16T03:26:05.897Z,9.40
2018-04-16T03:27:12.140Z,9.35
2018-04-16T03:28:18.369Z,9.36
2018-04-16T03:29:24.610Z,9.38
2018-04-16T03:30:30.387Z,9.35
2018-04-16T03:31:36.584Z,9.32
2018-04-16T03:32:43.378Z,9.34
2018-04-16T03:33:49.536Z,9.38
2018-04-16T03:34:55.815Z,9.37
2018-04-16T03:36:02.031Z,9.34
2018-04-16T03:37:08.244Z,9.26
2018-04-16T03:38:13.970Z,9.23
2018-04-16T03:39:20.702Z,9.22
2018-04-16T03:40:26.948Z,9.18
2018-04-16T03:41:32.660Z,9.11
2018-04-16T03:42:38.893Z,9.09
2018-04-16T03:43:45.108Z,9.15
2018-04-16T03:44:51.333Z,9.17
2018-04-16T03:45:58.084Z,9.14
2018-04-16T03:47:04.293Z,9.08
2018-04-16T03:48:10.008Z,9.03
2018-04-16T03:49:16.729Z,8.99
2018-04-16T03:50:22.959Z,8.89
2018-04-16T03:51:29.212Z,8.84
2018-04-16T03:52:35.393Z,8.81
2018-04-16T03:53:41.617Z,8.77
2018-04-16T03:54:47.354Z,8.73
2018-04-16T03:55:53.597Z,8.71
2018-04-16T03:56:59.794Z,8.80
2018-04-16T03:58:06.502Z,8.86
2018-04-16T03:59:12.718Z,8.84
2018-04-16T04:00:18.940Z,8.80
2018-04-16T04:01:25.185Z,8.73
2018-04-16T04:02:31.401Z,8.67
2018-04-16T04:03:37.598Z,8.67
2018-04-16T04:04:44.220Z,8.75
2018-04-16T04:05:50.036Z,8.72
2018-04-16T04:06:56.282Z,8.70
2018-04-16T04:08:02.454Z,8.67
2018-04-16T04:09:08.693Z,8.61
2018-04-16T04:10:14.390Z,8.51
2018-04-16T04:11:21.118Z,8.48
2018-04-16T04:12:26.817Z,8.54
2018-04-16T04:13:33.519Z,8.53
2018-04-16T04:14:39.723Z,8.53
2018-04-16T04:15:45.455Z,8.50
2018-04-16T04:16:52.178Z,8.45
2018-04-16T04:17:57.862Z,8.45
2018-04-16T04:19:04.556Z,8.44
2018-04-16T04:20:10.777Z,8.42
2018-04-16T04:21:17.000Z,8.47
2018-04-16T04:22:23.178Z,8.53
2018-04-16T04:23:29.401Z,8.55
2018-04-16T04:24:35.598Z,8.64
2018-04-16T04:25:41.806Z,8.81
2018-04-16T04:26:48.039Z,8.89
2018-04-16T04:27:54.228Z,8.98
2018-04-16T04:29:00.438Z,9.00
2018-04-16T04:30:06.622Z,8.86
2018-04-16T04:31:12.829Z,8.70
2018-04-16T04:32:19.056Z,8.62
2018-04-16T04:33:25.250Z,8.76
2018-04-16T04:34:31.464Z,8.81
2018-04-16T04:35:38.664Z,8.72
2018-04-16T04:36:44.385Z,8.57
2018-04-16T04:37:49.571Z,8.51
2018-04-16T04:38:55.777Z,8.55
2018-04-16T04:40:01.985Z,8.47
2018-04-16T04:41:08.691Z,8.38
2018-04-16T04:42:15.381Z,8.40
2018-04-16T04:43:20.614Z,8.32
2018-04-16T04:44:26.823Z,8.23
2018-04-16T04:45:33.016Z,8.24
2018-04-16T04:46:39.752Z,8.29
2018-04-16T04:47:45.935Z,8.34
2018-04-16T04:48:52.145Z,8.32
2018-04-16T04:49:57.829Z,8.27
2018-04-16T04:51:04.031Z,8.34
2018-04-16T04:52:10.752Z,8.31
2018-04-16T04:53:16.958Z,8.20
2018-04-16T04:54:23.215Z,8.19
2018-04-16T04:55:29.405Z,8.16
2018-04-16T04:56:35.548Z,8.16
2018-04-16T04:57:41.761Z,8.24
2018-04-16T04:58:47.460Z,8.30
2018-04-16T04:59:54.137Z,8.19
2018-04-16T05:01:00.385Z,8.16
2018-04-16T05:02:06.564Z,8.14
2018-04-16T05:03:12.754Z,8.11
2018-04-16T05:04:18.947Z,8.11
2018-04-16T05:05:25.156Z,8.18
2018-04-16T05:06:31.347Z,8.39
2018-04-16T05:07:37.566Z,8.47
2018-04-16T05:08:43.740Z,8.38
2018-04-16T05:09:49.944Z,8.32
2018-04-16T05:10:55.641Z,8.29
2018-04-16T05:12:01.895Z,8.29
2018-04-16T05:13:08.084Z,8.25
2018-04-16T05:14:14.780Z,8.30
2018-04-16T05:15:20.943Z,8.35
2018-04-16T05:16:27.133Z,8.44
2018-04-16T05:17:33.365Z,8.60
2018-04-16T05:18:39.536Z,8.50
2018-04-16T05:19:45.743Z,8.38
2018-04-16T05:20:51.430Z,8.44
2018-04-16T05:21:58.126Z,8.47
2018-04-16T05:23:04.404Z,8.38
2018-04-16T05:24:10.028Z,8.31
2018-04-16T05:25:16.732Z,8.25
2018-04-16T05:26:22.443Z,8.11
2018-04-16T05:27:29.154Z,8.00
2018-04-16T05:28:35.343Z,8.03
2018-04-16T05:29:41.540Z,8.08
2018-04-16T05:30:47.727Z,8.16
2018-04-16T05:31:53.928Z,8.15
2018-04-16T05:33:00.152Z,8.16
2018-04-16T05:34:06.395Z,8.08
2018-04-16T05:35:12.027Z,8.12
2018-04-16T05:36:18.225Z,8.22
2018-04-16T05:37:24.907Z,8.30
2018-04-16T05:38:31.145Z,8.25
2018-04-16T05:39:36.831Z,8.22
2018-04-16T05:40:43.526Z,8.23
2018-04-16T05:41:49.708Z,8.20
2018-04-16T05:42:55.938Z,8.16
2018-04-16T05:44:02.111Z,8.13
2018-04-16T05:45:07.798Z,8.15
2018-04-16T05:46:14.506Z,8.18
2018-04-16T05:47:20.689Z,8.35
2018-04-16T05:48:26.920Z,8.48
2018-04-16T05:49:33.095Z,8.53
2018-04-16T05:50:39.299Z,8.56
2018-04-16T05:51:45.482Z,8.53
2018-04-16T05:52:51.718Z,8.55
2018-04-16T05:53:57.891Z,8.53
2018-04-16T05:55:04.095Z,8.66
2018-04-16T05:56:10.383Z,8.81
2018-04-16T05:57:16.004Z,8.65
2018-04-16T05:58:22.220Z,8.50
2018-04-16T05:59:28.913Z,8.47
2018-04-16T06:00:34.602Z,8.59
2018-04-16T06:01:41.312Z,8.78
2018-04-16T06:02:47.513Z,9.01
2018-04-16T06:03:53.751Z,9.11
2018-04-16T06:04:59.914Z,9.09
2018-04-16T06:06:06.142Z,9.10
2018-04-16T06:07:11.844Z,8.98
2018-04-16T06:08:18.064Z,8.82
2018-04-16T06:09:25.497Z,8.73
2018-04-16T06:10:30.454Z,8.76
2018-04-16T06:11:37.174Z,8.64
2018-04-16T06:12:44.382Z,8.63
2018-04-16T06:13:49.587Z,8.67
2018-04-16T06:14:55.778Z,8.72
2018-04-16T06:16:02.005Z,8.74
2018-04-16T06:17:08.189Z,8.86
2018-04-16T06:18:14.426Z,9.07
2018-04-16T06:19:20.659Z,9.31
2018-04-16T06:20:26.822Z,9.36
2018-04-16T06:21:33.037Z,9.40
2018-04-16T06:22:38.770Z,9.43
2018-04-16T06:23:45.469Z,9.49
2018-04-16T06:24:51.670Z,9.60
2018-04-16T06:25:57.882Z,9.65
2018-04-16T06:27:04.099Z,9.63
2018-04-16T06:28:10.393Z,9.57
2018-04-16T06:29:16.553Z,9.57
2018-04-16T06:30:22.252Z,9.55
2018-04-16T06:31:28.955Z,9.49
2018-04-16T06:32:35.181Z,9.50
2018-04-16T06:33:41.431Z,9.56
2018-04-16T06:34:47.629Z,9.67
2018-04-16T06:35:53.843Z,9.80
2018-04-16T06:37:01.229Z,9.99
2018-04-16T06:38:06.377Z,10.12
2018-04-16T06:39:12.537Z,10.20
2018-04-16T06:40:18.740Z,10.34
2018-04-16T06:41:24.475Z,10.39
2018-04-16T06:42:31.187Z,10.49
2018-04-16T06:43:37.428Z,10.55
2018-04-16T06:44:43.678Z,10.63
2018-04-16T06:45:49.389Z,10.66
2018-04-16T06:46:56.131Z,10.66
2018-04-16T06:48:02.383Z,10.62
2018-04-16T06:49:08.628Z,10.57
2018-04-16T06:50:14.362Z,10.61
2018-04-16T06:51:20.588Z,10.65
2018-04-16T06:52:27.319Z,10.76
2018-04-16T06:53:33.574Z,10.85
2018-04-16T06:54:39.822Z,10.77
2018-04-16T06:55:46.050Z,10.70
2018-04-16T06:56:52.383Z,10.66
2018-04-16T06:57:58.529Z,10.63
2018-04-16T06:59:04.378Z,10.65
2018-04-16T07:00:11.060Z,10.68
2018-04-16T07:01:17.295Z,10.72
2018-04-16T07:02:23.526Z,10.77
2018-04-16T07:03:29.273Z,10.78
2018-04-16T07:04:36.034Z,10.93
2018-04-16T07:05:42.274Z,11.05
2018-04-16T07:06:50.486Z,11.19
2018-04-16T07:07:54.773Z,11.22
2018-04-16T07:09:01.036Z,11.15
2018-04-16T07:10:07.314Z,11.11
2018-04-16T07:11:13.054Z,11.21
2018-04-16T07:12:19.806Z,11.34
2018-04-16T07:13:27.029Z,11.36
2018-04-16T07:14:31.800Z,11.26
2018-04-16T07:15:38.572Z,11.17
2018-04-16T07:16:44.397Z,11.20
2018-04-16T07:17:51.081Z,11.17
2018-04-16T07:18:57.342Z,11.16
2018-04-16T07:20:03.120Z,11.22
2018-04-16T07:21:09.872Z,11.31
2018-04-16T07:22:16.121Z,11.34
2018-04-16T07:23:22.401Z,11.43
2018-04-16T07:24:28.163Z,11.56
2018-04-16T07:25:34.942Z,11.62
2018-04-16T07:26:41.179Z,11.70
2018-04-16T07:27:47.440Z,11.75
2018-04-16T07:28:53.720Z,11.72
2018-04-16T07:29:59.996Z,11.67
2018-04-16T07:31:06.275Z,11.61
2018-04-16T07:32:12.544Z,11.57
2018-04-16T07:33:18.390Z,11.69
2018-04-16T07:34:25.095Z,11.71
2018-04-16T07:35:31.386Z,11.77
2018-04-16T07:36:37.194Z,11.79
2018-04-16T07:37:43.951Z,11.93
2018-04-16T07:38:50.239Z,12.09
2018-04-16T07:39:56.527Z,12.17
2018-04-16T07:41:02.874Z,12.23
2018-04-16T07:42:08.624Z,12.23
2018-04-16T07:43:15.416Z,12.24
2018-04-16T07:44:21.702Z,12.24
2018-04-16T07:45:27.497Z,12.14
2018-04-16T07:46:34.396Z,12.15
2018-04-16T07:47:40.075Z,12.18
2018-04-16T07:48:46.868Z,12.25
2018-04-16T07:49:53.158Z,12.35
2018-04-16T07:50:59.467Z,12.37
2018-04-16T07:52:06.250Z,12.45
2018-04-16T07:53:12.038Z,12.54
2018-04-16T07:54:18.369Z,12.62
2018-04-16T07:55:24.153Z,12.79
2018-04-16T07:56:30.936Z,12.84
2018-04-16T07:57:37.225Z,12.86
2018-04-16T07:58:43.517Z,12.86
2018-04-16T07:59:49.327Z,12.92
2018-04-16T08:00:55.615Z,12.96
2018-04-16T08:02:02.437Z,12.99
2018-04-16T08:03:08.707Z,13.04
2018-04-16T08:04:15.027Z,13.10
2018-04-16T08:05:21.314Z,13.16
2018-04-16T08:06:27.685Z,13.18
2018-04-16T08:07:33.421Z,13.17
2018-04-16T08:08:40.280Z,13.16
2018-04-16T08:09:46.030Z,13.23
2018-04-16T08:10:52.852Z,13.28
2018-04-16T08:11:59.170Z,13.30
2018-04-16T08:13:05.465Z,13.34
2018-04-16T08:14:11.757Z,13.43
2018-04-16T08:15:17.574Z,13.51
2018-04-16T08:16:24.373Z,13.56
2018-04-16T08:17:30.207Z,13.63
2018-04-16T08:18:37.016Z,13.73
2018-04-16T08:19:42.815Z,13.80
2018-04-16T08:20:49.622Z,13.86
2018-04-16T08:21:55.464Z,13.90
2018-04-16T08:23:03.257Z,13.92
2018-04-16T08:24:08.595Z,13.92
2018-04-16T08:25:14.909Z,13.94
2018-04-16T08:26:21.230Z,13.98
2018-04-16T08:27:27.585Z,13.99
2018-04-16T08:28:33.383Z,14.10
2018-04-16T08:29:40.197Z,14.23
2018-04-16T08:30:46.536Z,14.29
2018-04-16T08:31:52.869Z,14.32
2018-04-16T08:32:59.192Z,14.30
2018-04-16T08:34:05.512Z,14.25
2018-04-16T08:35:11.350Z,14.25
2018-04-16T08:36:18.158Z,14.29
2018-04-16T08:37:24.526Z,14.38
2018-04-16T08:38:30.831Z,14.42
2018-04-16T08:39:37.163Z,14.39
2018-04-16T08:40:43.502Z,14.36
2018-04-16T08:41:49.862Z,14.54
2018-04-16T08:42:56.183Z,14.62
2018-04-16T08:44:02.518Z,14.72
2018-04-16T08:45:08.360Z,14.74
2018-04-16T08:46:15.199Z,14.71
2018-04-16T08:47:21.086Z,14.81
2018-04-16T08:48:27.407Z,14.96
2018-04-16T08:49:34.254Z,15.08
2018-04-16T08:50:40.614Z,15.09
2018-04-16T08:51:46.491Z,15.06
2018-04-16T08:52:52.867Z,15.06
2018-04-16T08:53:59.703Z,15.17
2018-04-16T08:55:05.579Z,15.26
2018-04-16T08:56:12.442Z,15.34
2018-04-16T08:57:18.848Z,15.36
2018-04-16T08:58:25.203Z,15.39
2018-04-16T08:59:31.571Z,15.53
2018-04-16T09:00:37.962Z,15.53
2018-04-16T09:01:44.378Z,15.55
2018-04-16T09:02:50.752Z,15.64
2018-04-16T09:03:57.126Z,15.66
2018-04-16T09:05:03.032Z,15.78
2018-04-16T09:06:09.427Z,15.85
2018-04-16T09:07:15.852Z,15.90
2018-04-16T09:08:22.749Z,15.97
2018-04-16T09:09:29.153Z,16.04
2018-04-16T09:10:35.092Z,16.23
2018-04-16T09:11:41.519Z,16.41
2018-04-16T09:12:47.968Z,16.53
2018-04-16T09:13:54.385Z,16.62
2018-04-16T09:15:00.847Z,16.65
2018-04-16T09:16:07.291Z,16.68
2018-04-16T09:17:14.268Z,16.83
2018-04-16T09:18:20.709Z,16.98
2018-04-16T09:19:27.194Z,17.23
2018-04-16T09:20:33.666Z,17.36
2018-04-16T09:21:40.156Z,17.51
2018-04-16T09:22:46.167Z,17.63
2018-04-16T09:23:53.139Z,17.71
2018-04-16T09:24:59.647Z,17.74
2018-04-16T09:26:06.157Z,17.97
2018-04-16T09:27:12.699Z,18.28
2018-04-16T09:28:19.738Z,18.45
2018-04-16T09:29:25.267Z,18.57
2018-04-16T09:30:31.794Z,18.63
2018-04-16T09:31:38.828Z,18.67
2018-04-16T09:32:44.914Z,18.75
2018-04-16T09:33:51.418Z,18.87
2018-04-16T09:34:57.964Z,18.90
2018-04-16T09:36:04.490Z,18.80
2018-04-16T09:37:11.049Z,18.77
2018-04-16T09:38:19.052Z,18.76
2018-04-16T09:39:24.099Z,18.66
2018-04-16T09:40:31.135Z,18.61
2018-04-16T09:41:37.158Z,18.50
2018-04-16T09:42:43.694Z,18.51
2018-04-16T09:43:50.687Z,18.45
2018-04-16T09:44:56.707Z,18.42
2018-04-16T09:46:03.715Z,18.29
2018-04-16T09:47:11.255Z,18.18
2018-04-16T09:48:16.255Z,18.07
2018-04-16T09:49:22.761Z,18.10
2018-04-16T09:50:29.755Z,18.17
2018-04-16T09:51:36.271Z,18.21
2018-04-16T09:52:42.789Z,18.18
2018-04-16T09:53:49.266Z,18.20
2018-04-16T09:54:55.768Z,18.24
2018-04-16T09:56:02.268Z,18.31
2018-04-16T09:57:09.250Z,18.35
2018-04-16T09:58:15.269Z,18.43
2018-04-16T09:59:21.782Z,18.66
2018-04-16T10:00:27.790Z,18.90
2018-04-16T10:01:34.391Z,19.22
2018-04-16T10:02:41.341Z,19.51
2018-04-16T10:03:47.361Z,19.99
2018-04-16T10:04:54.420Z,20.49
2018-04-16T10:06:00.486Z,20.95
2018-04-16T10:07:07.546Z,21.37
2018-04-16T10:08:13.666Z,21.63
2018-04-16T10:09:20.252Z,21.78
2018-04-16T10:10:27.334Z,21.75
2018-04-16T10:11:33.956Z,21.54
2018-04-16T10:12:40.559Z,21.43
2018-04-16T10:13:47.138Z,21.32
2018-04-16T10:14:53.758Z,21.13
2018-04-16T10:16:00.381Z,21.01
2018-04-16T10:17:06.924Z,20.82
2018-04-16T10:18:13.048Z,20.56
2018-04-16T10:19:20.111Z,20.25
2018-04-16T10:20:26.685Z,20.10
2018-04-16T10:21:33.268Z,19.81
2018-04-16T10:22:39.871Z,19.58
2018-04-16T10:23:45.922Z,19.49
2018-04-16T10:24:53.019Z,19.44
2018-04-16T10:25:59.581Z,19.32
2018-04-16T10:27:05.636Z,19.26
2018-04-16T10:28:12.747Z,19.19
2018-04-16T10:29:18.777Z,19.13
2018-04-16T10:30:25.841Z,19.09
2018-04-16T10:31:31.906Z,18.93
2018-04-16T10:32:38.500Z,18.79
2018-04-16T10:33:45.031Z,18.65
2018-04-16T10:34:51.610Z,18.60
2018-04-16T10:35:58.667Z,18.64
2018-04-16T10:37:05.239Z,18.70
2018-04-16T10:38:11.336Z,18.79
2018-04-16T10:39:17.896Z,18.85
2018-04-16T10:40:24.472Z,18.93
2018-04-16T10:41:31.038Z,19.05
2018-04-16T10:42:37.645Z,19.12
2018-04-16T10:43:44.692Z,19.04
2018-04-16T10:44:50.785Z,18.92
2018-04-16T10:45:57.364Z,18.97
2018-04-16T10:47:04.956Z,19.09
2018-04-16T10:48:10.554Z,19.24
2018-04-16T10:49:17.633Z,19.49
2018-04-16T10:50:23.718Z,19.79
2018-04-16T10:51:30.815Z,20.05
2018-04-16T10:52:37.425Z,20.22
2018-04-16T10:53:44.015Z,20.32
2018-04-16T10:54:50.646Z,20.44
2018-04-16T10:55:57.261Z,20.62
2018-04-16T10:57:03.396Z,20.79
2018-04-16T10:58:10.046Z,20.91
2018-04-16T10:59:16.653Z,21.12
2018-04-16T11:00:23.792Z,21.25
2018-04-16T11:01:29.965Z,21.35
2018-04-16T11:02:36.648Z,21.44
2018-04-16T11:03:43.290Z,21.52
2018-04-16T11:04:49.963Z,21.69
2018-04-16T11:05:57.135Z,21.84
2018-04-16T11:07:03.831Z,21.92
2018-04-16T11:08:11.025Z,21.94
2018-04-16T11:09:17.207Z,21.91
2018-04-16T11:10:23.379Z,21.96
2018-04-16T11:11:30.057Z,21.97
2018-04-16T11:12:37.273Z,22.11
2018-04-16T11:13:43.746Z,22.26
2018-04-16T11:14:50.157Z,22.47
2018-04-16T11:15:56.836Z,22.69
2018-04-16T11:17:03.562Z,22.97
2018-04-16T11:18:10.407Z,23.21
2018-04-16T11:19:17.084Z,23.37
2018-04-16T11:20:24.916Z,23.53
2018-04-16T11:21:30.825Z,23.62
2018-04-16T11:22:38.243Z,23.46
2018-04-16T11:23:45.625Z,23.34
2018-04-16T11:24:52.060Z,23.12
2018-04-16T11:25:58.551Z,22.95
2018-04-16T11:27:05.574Z,22.81
2018-04-16T11:28:12.669Z,22.56
2018-04-16T11:29:20.119Z,22.28
2018-04-16T11:30:26.588Z,22.01
2018-04-16T11:31:33.536Z,21.88
2018-04-16T11:32:40.953Z,21.81
2018-04-16T11:33:47.338Z,21.79
2018-04-16T11:34:54.267Z,21.92
2018-04-16T11:36:01.216Z,22.07
2018-04-16T11:37:08.206Z,22.19
2018-04-16T11:38:15.205Z,22.25
2018-04-16T11:39:22.655Z,22.31
2018-04-16T11:40:29.123Z,22.36
2018-04-16T11:41:36.066Z,22.45
2018-04-16T11:42:43.024Z,22.51
2018-04-16T11:43:50.447Z,22.60
2018-04-16T11:44:56.897Z,22.84
2018-04-16T11:46:03.867Z,23.10
2018-04-16T11:47:10.881Z,23.26
2018-04-16T11:48:17.948Z,23.53
2018-04-16T11:49:25.017Z,23.77
2018-04-16T11:50:32.115Z,23.91
2018-04-16T11:51:39.233Z,23.82
2018-04-16T11:52:46.343Z,23.83
2018-04-16T11:53:53.914Z,23.75
2018-04-16T11:55:01.516Z,23.66
2018-04-16T11:56:07.626Z,23.50
2018-04-16T11:57:15.155Z,23.34
2018-04-16T11:58:21.739Z,23.32
2018-04-16T11:59:29.254Z,23.30
2018-04-16T12:00:35.801Z,23.31
2018-04-16T12:01:43.333Z,23.36
2018-04-16T12:02:49.884Z,23.52
2018-04-16T12:03:56.932Z,23.79
2018-04-16T12:05:04.525Z,24.01
2018-04-16T12:06:11.161Z,24.33
2018-04-16T12:07:18.263Z,24.68
2018-04-16T12:08:25.384Z,24.86
2018-04-16T12:09:32.921Z,24.68
2018-04-16T12:10:39.971Z,24.57
2018-04-16T12:11:46.534Z,24.51
2018-04-16T12:12:54.067Z,24.49
2018-04-16T12:14:00.587Z,24.33
2018-04-16T12:15:07.678Z,24.22
2018-04-16T12:16:15.165Z,24.07
2018-04-16T12:17:22.237Z,23.97
2018-04-16T12:18:28.674Z,23.73
2018-04-16T12:19:35.637Z,23.73
2018-04-16T12:20:42.594Z,23.69
2018-04-16T12:21:49.558Z,23.78
2018-04-16T12:22:56.526Z,23.84
2018-04-16T12:24:03.444Z,23.68
2018-04-16T12:25:10.904Z,23.87
2018-04-16T12:26:17.911Z,24.11
2018-04-16T12:27:24.454Z,24.35
2018-04-16T12:28:32.056Z,24.52
2018-04-16T12:29:38.657Z,24.56
2018-04-16T12:30:46.269Z,24.55
2018-04-16T12:31:53.400Z,24.57
2018-04-16T12:33:00.585Z,24.55
2018-04-16T12:34:07.114Z,24.46
2018-04-16T12:35:14.198Z,24.23
2018-04-16T12:36:21.235Z,24.23
2018-04-16T12:37:28.770Z,24.22
2018-04-16T12:38:35.820Z,24.23
2018-04-16T12:39:42.310Z,24.23
2018-04-16T12:40:49.795Z,24.10
2018-04-16T12:41:56.266Z,23.85
2018-04-16T12:43:03.769Z,23.58
2018-04-16T12:44:10.698Z,23.46
2018-04-16T12:45:17.637Z,23.59
2018-04-16T12:46:24.075Z,23.73
2018-04-16T12:47:31.033Z,23.79
2018-04-16T12:48:38.033Z,23.76
2018-04-16T12:49:45.515Z,23.39
2018-04-16T12:50:52.524Z,23.56
2018-04-16T12:51:59.097Z,23.32
2018-04-16T12:53:06.700Z,23.30
2018-04-16T12:54:13.807Z,23.03
2018-04-16T12:55:20.459Z,23.02
2018-04-16T12:56:27.625Z,23.03
2018-04-16T12:57:35.299Z,23.02
2018-04-16T12:58:42.037Z,22.84
2018-04-16T12:59:49.744Z,22.95
2018-04-16T13:00:57.028Z,23.02
2018-04-16T13:02:03.830Z,23.11
2018-04-16T13:03:11.142Z,23.02
2018-04-16T13:04:18.371Z,22.88
2018-04-16T13:05:26.100Z,22.75
2018-04-16T13:06:32.782Z,22.72
2018-04-16T13:07:40.019Z,22.73
2018-04-16T13:08:47.076Z,22.74
2018-04-16T13:09:54.629Z,22.63
2018-04-16T13:11:01.704Z,22.75
2018-04-16T13:12:09.327Z,22.99
2018-04-16T13:13:16.023Z,23.31
2018-04-16T13:14:23.205Z,23.35
2018-04-16T13:15:30.473Z,23.29
2018-04-16T13:16:37.760Z,23.43
2018-04-16T13:17:44.591Z,23.66
2018-04-16T13:18:51.939Z,23.76
2018-04-16T13:19:59.278Z,23.80
2018-04-16T13:21:06.628Z,23.91
2018-04-16T13:22:13.971Z,23.83
2018-04-16T13:23:21.820Z,23.62
2018-04-16T13:24:29.079Z,23.30
2018-04-16T13:25:35.809Z,22.88
2018-04-16T13:26:43.517Z,22.69
2018-04-16T13:27:50.649Z,22.71
2018-04-16T13:28:58.096Z,22.57
2018-04-16T13:30:04.370Z,22.41
2018-04-16T13:31:11.909Z,22.17
2018-04-16T13:32:18.449Z,22.09
2018-04-16T13:33:25.501Z,22.06
2018-04-16T13:34:32.980Z,22.24
2018-04-16T13:35:39.459Z,22.22
2018-04-16T13:36:46.905Z,22.44
2018-04-16T13:37:53.336Z,22.35
2018-04-16T13:39:00.787Z,22.46
2018-04-16T13:40:07.201Z,22.32
2018-04-16T13:41:14.613Z,22.64
2018-04-16T13:42:21.057Z,22.74
2018-04-16T13:43:28.533Z,22.75
2018-04-16T13:44:34.989Z,22.80
2018-04-16T13:45:41.995Z,23.11
2018-04-16T13:46:49.026Z,23.31
2018-04-16T13:47:56.106Z,23.76
2018-04-16T13:49:03.214Z,24.08
2018-04-16T13:50:10.361Z,24.29
2018-04-16T13:51:17.523Z,24.53
2018-04-16T13:52:24.696Z,24.53
2018-04-16T13:53:31.922Z,24.43
2018-04-16T13:54:39.144Z,24.62
2018-04-16T13:55:46.404Z,24.59
2018-04-16T13:56:53.683Z,24.78
2018-04-16T13:58:00.992Z,25.03
2018-04-16T13:59:08.809Z,24.77
2018-04-16T14:00:15.617Z,24.75
2018-04-16T14:01:23.439Z,24.87
2018-04-16T14:02:30.381Z,25.03
2018-04-16T14:03:38.155Z,25.04
2018-04-16T14:04:45.456Z,24.56
2018-04-16T14:05:52.243Z,24.27
2018-04-16T14:06:59.977Z,24.11
2018-04-16T14:08:07.196Z,23.83
2018-04-16T14:09:13.933Z,23.76
2018-04-16T14:10:21.120Z,23.93
2018-04-16T14:11:28.345Z,24.05
2018-04-16T14:12:35.574Z,24.02
2018-04-16T14:13:42.858Z,24.19
2018-04-16T14:14:50.739Z,24.37
2018-04-16T14:15:57.358Z,24.40
2018-04-16T14:17:04.617Z,24.57
2018-04-16T14:18:12.391Z,24.72
2018-04-16T14:19:19.190Z,24.97
2018-04-16T14:20:26.472Z,25.37
2018-04-16T14:21:33.758Z,25.49
2018-04-16T14:22:41.569Z,25.84